Welcome! Log In Create A New Profile

Advanced

Wien Schwechat fehlt Vormittags die 8 ...

May 13, 2017 06:58PM
##################################################
# SYNOPS de 11036, Wien / Schwechat-Flughafen (Austria)
##################################################

201705131200 AAXX 13121 11036 16674 72909 10211 20120 39896 40106 50001 60041
333 81836 83361 86078 81950 90760 91114==

201705131100 AAXX 13111 11036 26580 72809 10203 20116 39895 40106 50002
333 60005 81832 86078 81950 90710 91113==

201705131000 AAXX 13101 11036 46581 72806 10184 20134 39895 40107 50012
333 81830 83362 86078 81950==

201705130900 AAXX 13091 11036 21577 72804 10158 20130 39895 40109 53022 780//
333 60035 81822 83642 85358 81950==

201705130800 AAXX 13081 11036 21557 83007 10145 20126 39892 40107 50027 781//
333 60015 81828 86650 81950==

201705130700 AAXX 13071 11036 21682 80002 10158 20123 39883 40097 53020 715//
333 60005 81848 86650 81950==

201705130600 AAXX 13061 11036 46783 73103 10164 20113 39873 40086 53017
333 20102 30009 81856 86657 81956==

Bitte prüfen !

Viele Grüße und Danke für die klasse WB

Mammatus95



Edited 1 time(s). Last edit at 05/13/2017 07:01PM by Mammatus95.
Subject Author Views Posted

Brrr...schlotter... Eisheiligen-WB am 12.5-14.5 ;-)

Alexander 284 May 12, 2017 09:43AM

Besten Dank für die Einstimmung ins spannende Tipp-WE -ot-

Marcus Beyer 165 May 12, 2017 12:09PM

Vielen Dank für die wundervolle WB!

Kaltlufttropfen 176 May 12, 2017 01:32PM

Danke für die ausfürhliche und spannende Wetterbesprechung!

Heiko 171 May 12, 2017 02:57PM

Dankeschön und viel Spass beim Nowcasting ;-)

LukasRtM 198 May 12, 2017 02:56PM

...eine weltklasse WB, danke Alexander!

Georg Haas 187 May 12, 2017 04:20PM

Innsbruck trocken

Georg Haas 177 May 13, 2017 06:42PM

Re: Ganz Innsbruck trocken, nein, ein kleines ...

Alexander 152 May 14, 2017 08:37AM

Re: Innsbruck trocken

nik 154 May 15, 2017 12:22PM

Wien Schwechat fehlt Vormittags die 8 ...

Mammatus95 140 May 13, 2017 06:58PM